首页
METAR-TAF:

METAR-TAF

机场 :

哥伦比亚, 南卡罗来纳州, 美国

纬度: 33-58-15N, 经度: 080-59-40W, 海拔: 64米

当前天气观测

该预报发布于45分钟前的15:53 UTC
风速5节,风向多变
温度 14°C
湿度 58%
气压 1022 hPa
能見度: 16.1公里
天空无云

METAR: KCUB 201553Z AUTO VRB05KT 10SM CLR 14/06 A3017 RMK AO2 SLP215 T01440056

时间: 11:38 (16:38 UTC)

预报

该预报发布于1小时和44分钟前的14:54 UTC
预报有效从20日的 15点(UTC)到 21日的 12点(UTC)
风速6节,风向
能見度: 10公里
天空无云
从 21日的 0000点(UTC)
风速节,风向
能見度: 10公里
天空无云

TAF: KCUB 201454Z 2015/2112 35006KT P6SM SKC FM210000 00000KT P6SM SKC

超过4000个机场的气象观测和天气预报(METAR&TAF报告)。

可查询的气象台以黄色和红色小点在地图上表示。

将鼠标移到小点上方,可查看气象台名称。

然后点击查看天气观测和预报。

如需切换地图:点击带黑十字的绿色按钮放大地图;点击带横线的绿色按钮缩小地图;或者点击绿色箭头查看邻近地区的地图。


METAR-TAF: